createdAt,value
2017-07-14T00:00:28.088Z,0
2017-07-14T00:01:30.098Z,0
2017-07-14T00:02:32.104Z,0
2017-07-14T00:03:34.111Z,0
2017-07-14T00:04:36.117Z,0
2017-07-14T00:05:38.137Z,0
2017-07-14T00:06:40.149Z,0
2017-07-14T00:07:42.151Z,0
2017-07-14T00:08:44.157Z,0
2017-07-14T00:09:46.165Z,0
2017-07-14T00:10:48.180Z,0
2017-07-14T00:11:50.188Z,0
2017-07-14T00:12:52.208Z,0
2017-07-14T00:13:54.215Z,0
2017-07-14T00:14:56.220Z,0
2017-07-14T00:15:58.230Z,0
2017-07-14T00:17:00.243Z,0
2017-07-14T00:18:02.257Z,0
2017-07-14T00:19:04.266Z,0
2017-07-14T00:20:06.280Z,0
2017-07-14T00:21:08.294Z,0
2017-07-14T00:22:10.295Z,0
2017-07-14T00:23:12.306Z,0
2017-07-14T00:24:14.315Z,0
2017-07-14T00:25:16.324Z,0
2017-07-14T00:26:18.336Z,0
2017-07-14T00:27:20.336Z,0
2017-07-14T00:28:22.345Z,0
2017-07-14T00:29:24.357Z,0
2017-07-14T00:30:26.371Z,0
2017-07-14T00:31:28.373Z,0
2017-07-14T00:32:30.380Z,0
2017-07-14T00:33:32.391Z,0
2017-07-14T00:34:34.397Z,0
2017-07-14T00:35:36.408Z,0
2017-07-14T00:36:38.417Z,0
2017-07-14T00:37:40.423Z,0
2017-07-14T00:38:42.446Z,0
2017-07-14T00:39:44.451Z,0
2017-07-14T00:40:46.462Z,0
2017-07-14T00:41:48.481Z,0
2017-07-14T00:42:50.495Z,0
2017-07-14T00:43:52.503Z,0
2017-07-14T00:44:54.516Z,0
2017-07-14T00:45:56.530Z,0
2017-07-14T00:46:58.541Z,0
2017-07-14T00:48:00.539Z,0
2017-07-14T00:49:02.555Z,0
2017-07-14T00:50:04.557Z,0
2017-07-14T00:51:06.572Z,0
2017-07-14T00:52:08.575Z,0
2017-07-14T00:53:10.587Z,0
2017-07-14T00:54:12.602Z,0
2017-07-14T00:55:14.605Z,0
2017-07-14T00:56:16.616Z,0
2017-07-14T00:57:18.628Z,0
2017-07-14T00:58:20.631Z,0
2017-07-14T00:59:22.639Z,0
2017-07-14T01:00:24.995Z,0
2017-07-14T01:01:27.013Z,0
2017-07-14T01:02:29.016Z,0
2017-07-14T01:03:31.029Z,0
2017-07-14T01:04:33.040Z,0
2017-07-14T01:05:35.041Z,0
2017-07-14T01:06:37.053Z,0
2017-07-14T01:07:39.059Z,0
2017-07-14T01:08:41.077Z,0
2017-07-14T01:09:43.085Z,0
2017-07-14T01:10:45.093Z,0
2017-07-14T01:11:47.102Z,0
2017-07-14T01:12:49.109Z,0
2017-07-14T01:13:51.123Z,0
2017-07-14T01:14:53.129Z,0
2017-07-14T01:15:55.134Z,0
2017-07-14T01:16:57.147Z,0
2017-07-14T01:17:59.496Z,0
2017-07-14T01:19:01.501Z,0
2017-07-14T01:20:03.514Z,0
2017-07-14T01:21:05.518Z,0
2017-07-14T01:22:07.526Z,0
2017-07-14T01:23:09.541Z,0
2017-07-14T01:24:11.544Z,0
2017-07-14T01:25:13.556Z,0
2017-07-14T01:26:15.571Z,0
2017-07-14T01:27:17.575Z,0
2017-07-14T01:28:19.592Z,0
2017-07-14T01:29:21.597Z,0
2017-07-14T01:30:23.946Z,0
2017-07-14T01:31:25.964Z,0
2017-07-14T01:32:27.963Z,0
2017-07-14T01:33:29.977Z,0
2017-07-14T01:34:31.987Z,0
2017-07-14T01:35:33.985Z,0
2017-07-14T01:36:36.003Z,0
2017-07-14T01:37:38.017Z,0
2017-07-14T01:38:40.031Z,0
2017-07-14T01:39:42.034Z,0
2017-07-14T01:40:44.040Z,0
2017-07-14T01:41:46.052Z,0
2017-07-14T01:42:48.050Z,0
2017-07-14T01:43:50.057Z,0
2017-07-14T01:44:52.073Z,0
2017-07-14T01:45:54.086Z,0
2017-07-14T01:46:56.085Z,0
2017-07-14T01:47:58.095Z,0
2017-07-14T01:49:00.109Z,0
2017-07-14T01:50:02.116Z,0
2017-07-14T01:51:04.129Z,0
2017-07-14T01:52:06.136Z,0
2017-07-14T01:53:08.140Z,0
2017-07-14T01:54:10.160Z,0
2017-07-14T01:55:12.166Z,0
2017-07-14T01:56:14.180Z,0
2017-07-14T01:57:16.185Z,0
2017-07-14T01:58:18.193Z,0
2017-07-14T01:59:20.203Z,0
2017-07-14T02:00:22.212Z,0
2017-07-14T02:01:24.220Z,0
2017-07-14T02:02:26.232Z,0
2017-07-14T02:03:28.238Z,0
2017-07-14T02:04:30.250Z,0
2017-07-14T02:05:32.259Z,0
2017-07-14T02:06:34.262Z,0
2017-07-14T02:07:36.270Z,0
2017-07-14T02:08:38.292Z,0
2017-07-14T02:09:40.635Z,0
2017-07-14T02:10:42.647Z,0
2017-07-14T02:11:44.660Z,0
2017-07-14T02:12:46.668Z,0
2017-07-14T02:13:48.682Z,0
2017-07-14T02:14:50.688Z,0
2017-07-14T02:15:52.706Z,0
2017-07-14T02:16:54.720Z,4
2017-07-14T02:17:56.722Z,4
2017-07-14T02:18:58.730Z,4
2017-07-14T02:20:00.739Z,4
2017-07-14T02:21:02.764Z,0
2017-07-14T02:22:04.774Z,0
2017-07-14T02:23:06.775Z,4
2017-07-14T02:24:08.786Z,4
2017-07-14T02:25:10.798Z,4
2017-07-14T02:26:12.808Z,4
2017-07-14T02:27:14.807Z,4
2017-07-14T02:28:16.822Z,4
2017-07-14T02:29:18.832Z,8
2017-07-14T02:30:20.835Z,8
2017-07-14T02:31:22.842Z,8
2017-07-14T02:32:25.187Z,12
2017-07-14T02:33:27.203Z,8
2017-07-14T02:34:29.201Z,12
2017-07-14T02:35:31.210Z,12
2017-07-14T02:36:33.228Z,16
2017-07-14T02:37:35.231Z,16
2017-07-14T02:38:37.238Z,20
2017-07-14T02:39:39.255Z,24
2017-07-14T02:40:41.269Z,28
2017-07-14T02:41:43.282Z,28
2017-07-14T02:42:45.285Z,32
2017-07-14T02:43:47.295Z,40
2017-07-14T02:44:49.299Z,44
2017-07-14T02:45:51.309Z,52
2017-07-14T02:46:53.321Z,56
2017-07-14T02:47:55.326Z,64
2017-07-14T02:48:57.345Z,72
2017-07-14T02:49:59.347Z,84
2017-07-14T02:51:01.358Z,92
2017-07-14T02:52:03.370Z,100
2017-07-14T02:53:05.377Z,108
2017-07-14T02:54:07.398Z,116
2017-07-14T02:55:09.404Z,124
2017-07-14T02:56:11.424Z,136
2017-07-14T02:57:13.436Z,148
2017-07-14T02:58:15.442Z,156
2017-07-14T02:59:17.461Z,168
2017-07-14T03:00:19.478Z,188
2017-07-14T03:01:21.492Z,200
2017-07-14T03:02:23.503Z,212
2017-07-14T03:03:25.513Z,224
2017-07-14T03:04:27.531Z,244
2017-07-14T03:05:29.548Z,260
2017-07-14T03:06:31.560Z,276
2017-07-14T03:07:33.567Z,296
2017-07-14T03:08:35.571Z,320
2017-07-14T03:09:37.590Z,340
2017-07-14T03:10:39.601Z,368
2017-07-14T03:11:41.611Z,396
2017-07-14T03:12:43.619Z,428
2017-07-14T03:13:45.626Z,460
2017-07-14T03:14:47.626Z,500
2017-07-14T03:15:49.632Z,544
2017-07-14T03:16:51.658Z,588
2017-07-14T03:17:53.669Z,636
2017-07-14T03:18:55.676Z,684
2017-07-14T03:19:57.690Z,732
2017-07-14T03:20:59.703Z,776
2017-07-14T03:22:01.708Z,816
2017-07-14T03:23:03.724Z,844
2017-07-14T03:24:05.739Z,868
2017-07-14T03:25:07.749Z,884
2017-07-14T03:26:09.762Z,896
2017-07-14T03:27:11.774Z,912
2017-07-14T03:28:13.787Z,924
2017-07-14T03:29:15.806Z,944
2017-07-14T03:30:17.820Z,964
2017-07-14T03:31:19.831Z,992
2017-07-14T03:32:21.843Z,1024
2017-07-14T03:33:23.852Z,1056
2017-07-14T03:34:25.864Z,1096
2017-07-14T03:35:27.880Z,1136
2017-07-14T03:36:29.898Z,1184
2017-07-14T03:37:31.912Z,1232
2017-07-14T03:38:33.914Z,1288
2017-07-14T03:39:35.927Z,1352
2017-07-14T03:40:37.943Z,1420
2017-07-14T03:41:39.951Z,1500
2017-07-14T03:42:41.966Z,1588
2017-07-14T03:43:43.974Z,1684
2017-07-14T03:44:45.986Z,1780
2017-07-14T03:45:48.003Z,1876
2017-07-14T03:46:50.016Z,1956
2017-07-14T03:47:52.027Z,2024
2017-07-14T03:48:54.052Z,2076
2017-07-14T03:49:56.053Z,2108
2017-07-14T03:50:58.064Z,2136
2017-07-14T03:52:00.078Z,2152
2017-07-14T03:53:02.088Z,2164
2017-07-14T03:54:04.098Z,2172
2017-07-14T03:55:06.112Z,2196
2017-07-14T03:56:08.117Z,2228
2017-07-14T03:57:10.142Z,2276
2017-07-14T03:58:12.150Z,2344
2017-07-14T03:59:14.161Z,2424
2017-07-14T04:00:16.173Z,2512
2017-07-14T04:01:18.183Z,2604
2017-07-14T04:02:20.197Z,2708
2017-07-14T04:03:22.199Z,2824
2017-07-14T04:04:24.223Z,2936
2017-07-14T04:05:26.236Z,3048
2017-07-14T04:06:28.244Z,3164
2017-07-14T04:07:30.262Z,3280
2017-07-14T04:08:32.281Z,3404
2017-07-14T04:09:34.282Z,3532
2017-07-14T04:10:36.300Z,3656
2017-07-14T04:11:38.303Z,3764
2017-07-14T04:12:40.332Z,3848
2017-07-14T04:13:42.331Z,3908
2017-07-14T04:14:44.365Z,3964
2017-07-14T04:15:46.361Z,4028
2017-07-14T04:16:48.369Z,4100
2017-07-14T04:17:50.385Z,4200
2017-07-14T04:18:52.392Z,4312
2017-07-14T04:19:54.405Z,4408
2017-07-14T04:20:56.409Z,4472
2017-07-14T04:21:58.419Z,4488
2017-07-14T04:23:00.441Z,4456
2017-07-14T04:24:02.454Z,4380
2017-07-14T04:25:04.463Z,4280
2017-07-14T04:26:06.475Z,4184
2017-07-14T04:27:08.483Z,4128
2017-07-14T04:28:10.497Z,4128
2017-07-14T04:29:12.503Z,4188
2017-07-14T04:30:14.523Z,4272
2017-07-14T04:31:16.541Z,4356
2017-07-14T04:32:18.549Z,4468
2017-07-14T04:33:20.564Z,4584
2017-07-14T04:34:22.578Z,4700
2017-07-14T04:35:24.594Z,4824
2017-07-14T04:36:26.606Z,4952
2017-07-14T04:37:28.626Z,5040
2017-07-14T04:38:30.632Z,5112
2017-07-14T04:39:32.642Z,5204
2017-07-14T04:40:34.658Z,5304
2017-07-14T04:41:36.676Z,5404
2017-07-14T04:42:38.694Z,5492
2017-07-14T04:43:40.704Z,5556
2017-07-14T04:44:42.722Z,5588
2017-07-14T04:45:44.740Z,5600
2017-07-14T04:46:46.746Z,5616
2017-07-14T04:47:48.766Z,5644
2017-07-14T04:48:50.776Z,5720
2017-07-14T04:49:52.788Z,5844
2017-07-14T04:50:54.797Z,6004
2017-07-14T04:51:57.141Z,6184
2017-07-14T04:52:59.157Z,6396
2017-07-14T04:54:01.176Z,6616
2017-07-14T04:55:03.197Z,6788
2017-07-14T04:56:05.210Z,6900
2017-07-14T04:57:07.225Z,6980
2017-07-14T04:58:09.242Z,6984
2017-07-14T04:59:11.281Z,6952
2017-07-14T05:00:14.531Z,6900
2017-07-14T05:01:16.553Z,6844
2017-07-14T05:02:18.564Z,6756
2017-07-14T05:03:20.935Z,6668
2017-07-14T05:04:22.941Z,6532
2017-07-14T05:05:24.966Z,6316
2017-07-14T05:06:27.335Z,6172
2017-07-14T05:07:29.373Z,6068
2017-07-14T05:08:31.419Z,5996
2017-07-14T05:09:33.435Z,5976
2017-07-14T05:10:35.452Z,5976
2017-07-14T05:11:37.468Z,5968
2017-07-14T05:12:39.482Z,5956
2017-07-14T05:13:41.510Z,5884
2017-07-14T05:14:43.898Z,5828
2017-07-14T05:15:45.921Z,5852
2017-07-14T05:16:47.945Z,5960
2017-07-14T05:17:49.965Z,6180
2017-07-14T05:18:51.976Z,6396
2017-07-14T05:19:53.995Z,6644
2017-07-14T05:20:56.010Z,6876
2017-07-14T05:21:58.082Z,7188
2017-07-14T05:23:00.671Z,7568
2017-07-14T05:24:03.376Z,7932
2017-07-14T05:25:06.193Z,8256
2017-07-14T05:26:09.095Z,8584
2017-07-14T05:27:11.824Z,8908
2017-07-14T05:28:14.008Z,9236
2017-07-14T05:29:19.083Z,9568
2017-07-14T05:30:21.769Z,9888
2017-07-14T05:31:24.194Z,10196
2017-07-14T05:32:27.055Z,10496
2017-07-14T05:33:32.206Z,10780
2017-07-14T05:34:36.820Z,10952
2017-07-14T05:35:42.157Z,11012
2017-07-14T05:36:46.818Z,11064
2017-07-14T05:37:49.708Z,11088
2017-07-14T05:38:53.700Z,11036
2017-07-14T05:40:00.003Z,11144
2017-07-14T05:41:04.911Z,11132
2017-07-14T05:42:08.714Z,11044
2017-07-14T05:43:12.451Z,11128
2017-07-14T05:44:14.693Z,11224
2017-07-14T05:45:17.649Z,11412
2017-07-14T05:46:19.983Z,11488
2017-07-14T05:47:22.849Z,11696
2017-07-14T05:48:26.952Z,11884
2017-07-14T05:49:29.498Z,12028
2017-07-14T05:50:32.245Z,12140
2017-07-14T05:51:34.370Z,12292
2017-07-14T05:52:36.458Z,12292
2017-07-14T05:53:39.799Z,12056
2017-07-14T05:54:42.417Z,11852
2017-07-14T05:55:46.660Z,11580
2017-07-14T05:56:52.422Z,11312
2017-07-14T05:57:57.549Z,11076
2017-07-14T05:59:03.143Z,11012
2017-07-14T06:00:08.330Z,10988
2017-07-14T06:01:13.549Z,11056
2017-07-14T06:02:18.245Z,11224
2017-07-14T06:03:23.407Z,11400
2017-07-14T06:04:28.459Z,11512
2017-07-14T06:05:32.977Z,11480
2017-07-14T06:06:38.002Z,11548
2017-07-14T06:07:40.578Z,11568
2017-07-14T06:08:46.401Z,11548
2017-07-14T06:09:48.902Z,11684
2017-07-14T06:10:50.931Z,11856
2017-07-14T06:11:52.951Z,12068
2017-07-14T06:12:54.969Z,12412
2017-07-14T06:13:56.999Z,12736
2017-07-14T06:14:59.021Z,13048
2017-07-14T06:16:01.039Z,13336
2017-07-14T06:17:03.058Z,13608
2017-07-14T06:18:05.085Z,13668
2017-07-14T06:19:07.110Z,13616
2017-07-14T06:20:09.146Z,13460
2017-07-14T06:21:11.516Z,13312
2017-07-14T06:22:13.541Z,13216
2017-07-14T06:23:15.565Z,13048
2017-07-14T06:24:17.935Z,12880
2017-07-14T06:25:19.952Z,12740
2017-07-14T06:26:21.975Z,12604
2017-07-14T06:27:24.003Z,12548
2017-07-14T06:28:26.028Z,12528
2017-07-14T06:29:28.042Z,12636
2017-07-14T06:30:30.064Z,12788
2017-07-14T06:31:32.089Z,12788
2017-07-14T06:32:34.119Z,12844
2017-07-14T06:33:36.144Z,12988
2017-07-14T06:34:38.181Z,13072
2017-07-14T06:35:40.207Z,13140
2017-07-14T06:36:42.227Z,13244
2017-07-14T06:37:44.252Z,13292
2017-07-14T06:38:46.285Z,13272
2017-07-14T06:39:48.314Z,13180
2017-07-14T06:40:50.336Z,13052
2017-07-14T06:41:52.364Z,12920
2017-07-14T06:42:54.393Z,12628
2017-07-14T06:43:56.411Z,12380
2017-07-14T06:44:58.435Z,12172
2017-07-14T06:46:00.470Z,11992
2017-07-14T06:47:02.496Z,11860
2017-07-14T06:48:04.523Z,11820
2017-07-14T06:49:06.541Z,11712
2017-07-14T06:50:08.562Z,11596
2017-07-14T06:51:10.597Z,11624
2017-07-14T06:52:12.625Z,11716
2017-07-14T06:53:14.667Z,11800
2017-07-14T06:54:16.694Z,11736
2017-07-14T06:55:18.725Z,11608
2017-07-14T06:56:20.757Z,11612
2017-07-14T06:57:22.787Z,11584
2017-07-14T06:58:24.793Z,11540
2017-07-14T06:59:26.837Z,11340
2017-07-14T07:00:28.857Z,11116
2017-07-14T07:01:30.894Z,10856
2017-07-14T07:02:32.911Z,10568
2017-07-14T07:03:34.932Z,10540
2017-07-14T07:04:36.958Z,10840
2017-07-14T07:05:38.984Z,11316
2017-07-14T07:06:41.020Z,11664
2017-07-14T07:07:43.053Z,11796
2017-07-14T07:08:45.075Z,11920
2017-07-14T07:09:47.115Z,12100
2017-07-14T07:10:49.132Z,12376
2017-07-14T07:11:51.160Z,12660
2017-07-14T07:12:53.188Z,12776
2017-07-14T07:13:55.226Z,13012
2017-07-14T07:14:57.250Z,12952
2017-07-14T07:15:59.278Z,12716
2017-07-14T07:17:01.296Z,12484
2017-07-14T07:18:03.339Z,12224
2017-07-14T07:19:05.356Z,11996
2017-07-14T07:20:07.384Z,11920
2017-07-14T07:21:09.434Z,12172
2017-07-14T07:22:11.436Z,12756
2017-07-14T07:23:13.461Z,13264
2017-07-14T07:24:15.484Z,13784
2017-07-14T07:25:17.510Z,14324
2017-07-14T07:26:19.559Z,14584
2017-07-14T07:27:21.585Z,14704
2017-07-14T07:28:23.612Z,14736
2017-07-14T07:29:25.637Z,14996
2017-07-14T07:30:27.659Z,15024
2017-07-14T07:31:29.690Z,14780
2017-07-14T07:32:31.715Z,14472
2017-07-14T07:33:33.735Z,14000
2017-07-14T07:34:36.118Z,13352
2017-07-14T07:35:38.146Z,12760
2017-07-14T07:36:40.183Z,12636
2017-07-14T07:37:42.215Z,12480
2017-07-14T07:38:44.239Z,12272
2017-07-14T07:39:46.273Z,12008
2017-07-14T07:40:48.294Z,11688
2017-07-14T07:41:50.322Z,11344
2017-07-14T07:42:52.354Z,10920
2017-07-14T07:43:54.390Z,10572
2017-07-14T07:44:56.406Z,10504
2017-07-14T07:45:58.769Z,10248
2017-07-14T07:47:00.798Z,10108
2017-07-14T07:48:02.821Z,10184
2017-07-14T07:49:04.851Z,10240
2017-07-14T07:50:06.880Z,10192
2017-07-14T07:51:08.909Z,10152
2017-07-14T07:52:10.923Z,10108
2017-07-14T07:53:12.947Z,10032
2017-07-14T07:54:14.974Z,10024
2017-07-14T07:55:17.005Z,10136
2017-07-14T07:56:19.034Z,10256
2017-07-14T07:57:21.059Z,10328
2017-07-14T07:58:23.091Z,10424
2017-07-14T07:59:25.109Z,10500
2017-07-14T08:00:27.138Z,10568
2017-07-14T08:01:29.166Z,10636
2017-07-14T08:02:31.184Z,10696
2017-07-14T08:03:33.211Z,10824
2017-07-14T08:04:35.235Z,10960
2017-07-14T08:05:37.263Z,11200
2017-07-14T08:06:39.299Z,11768
2017-07-14T08:07:41.324Z,12532
2017-07-14T08:08:43.692Z,12104
2017-07-14T08:09:45.721Z,12340
2017-07-14T08:10:48.093Z,13192
2017-07-14T08:11:50.122Z,13216
2017-07-14T08:12:52.142Z,13380
2017-07-14T08:13:54.168Z,13716
2017-07-14T08:14:56.193Z,14472
2017-07-14T08:15:58.557Z,15328
2017-07-14T08:17:00.582Z,15156
2017-07-14T08:18:02.607Z,15940
2017-07-14T08:19:04.982Z,17380
2017-07-14T08:20:06.999Z,18964
2017-07-14T08:21:09.016Z,21440
2017-07-14T08:22:11.044Z,22880
2017-07-14T08:23:13.060Z,22688
2017-07-14T08:24:15.086Z,22912
2017-07-14T08:25:17.126Z,21536
2017-07-14T08:26:19.150Z,20768
2017-07-14T08:27:21.175Z,21088
2017-07-14T08:28:23.196Z,22240
2017-07-14T08:29:25.559Z,23488
2017-07-14T08:30:27.586Z,23904
2017-07-14T08:31:29.606Z,25472
2017-07-14T08:32:31.634Z,25152
2017-07-14T08:33:33.663Z,42688
2017-07-14T08:34:35.680Z,45120
2017-07-14T08:35:37.717Z,24320
2017-07-14T08:36:39.737Z,42496
2017-07-14T08:37:42.098Z,35552
2017-07-14T08:38:44.124Z,27488
2017-07-14T08:39:46.136Z,52736
2017-07-14T08:40:48.315Z,44928
2017-07-14T08:41:50.342Z,46752
2017-07-14T08:42:52.365Z,40352
2017-07-14T08:43:54.731Z,53536
2017-07-14T08:44:57.090Z,42752
2017-07-14T08:45:59.109Z,31360
2017-07-14T08:47:01.143Z,70816
2017-07-14T08:48:03.164Z,49888
2017-07-14T08:49:05.191Z,97728
2017-07-14T08:50:07.217Z,79712
2017-07-14T08:51:09.235Z,111072
2017-07-14T08:52:11.260Z,104448
2017-07-14T08:53:13.285Z,119200
2017-07-14T08:54:15.320Z,103456
2017-07-14T08:55:17.349Z,123040
2017-07-14T08:56:19.371Z,93696
2017-07-14T08:57:21.395Z,138656
2017-07-14T08:58:23.418Z,141088
2017-07-14T08:59:25.440Z,135232
2017-07-14T09:00:27.469Z,145952
2017-07-14T09:01:29.830Z,138016
2017-07-14T09:02:31.863Z,103904
2017-07-14T09:03:34.231Z,129824
2017-07-14T09:04:36.282Z,143584
2017-07-14T09:05:38.317Z,144992
2017-07-14T09:06:40.336Z,131040
2017-07-14T09:07:42.635Z,121696
2017-07-14T09:08:45.222Z,82208
2017-07-14T09:09:47.239Z,134976
2017-07-14T09:10:49.272Z,121440
2017-07-14T09:11:51.290Z,126208
2017-07-14T09:12:53.330Z,39392
2017-07-14T09:13:55.355Z,33856
2017-07-14T09:14:57.379Z,28576
2017-07-14T09:15:59.413Z,57312
2017-07-14T09:17:01.435Z,58400
2017-07-14T09:18:03.458Z,27776
2017-07-14T09:19:05.487Z,24864
2017-07-14T09:20:07.508Z,41600
2017-07-14T09:21:09.541Z,142592
2017-07-14T09:22:11.563Z,127392
2017-07-14T09:23:13.922Z,71776
2017-07-14T09:24:15.951Z,155968
2017-07-14T09:25:17.983Z,85312
2017-07-14T09:26:20.010Z,162144
2017-07-14T09:27:22.042Z,75424
2017-07-14T09:28:24.080Z,22368
2017-07-14T09:29:26.222Z,24224
2017-07-14T09:30:29.218Z,21472
2017-07-14T09:31:31.260Z,24160
2017-07-14T09:32:33.341Z,27488
2017-07-14T09:33:35.381Z,33824
2017-07-14T09:34:37.398Z,37824
2017-07-14T09:35:39.423Z,45408
2017-07-14T09:36:41.806Z,68960
2017-07-14T09:37:43.830Z,134208
2017-07-14T09:38:45.863Z,142688
2017-07-14T09:39:47.889Z,42528
2017-07-14T09:40:51.146Z,143552
2017-07-14T09:41:53.359Z,156224
2017-07-14T09:42:55.380Z,67616
2017-07-14T09:43:57.406Z,139104
2017-07-14T09:44:59.448Z,32736
2017-07-14T09:46:01.460Z,35264
2017-07-14T09:47:03.490Z,111232
2017-07-14T09:48:05.519Z,38464
2017-07-14T09:49:07.880Z,30720
2017-07-14T09:50:09.909Z,37120
2017-07-14T09:51:11.938Z,31008
2017-07-14T09:52:13.968Z,130496
2017-07-14T09:53:15.996Z,135104
2017-07-14T09:54:18.022Z,132352
2017-07-14T09:55:20.060Z,122144
2017-07-14T09:56:22.085Z,118048
2017-07-14T09:57:24.115Z,125344
2017-07-14T09:58:26.143Z,128288
2017-07-14T09:59:28.176Z,144352
2017-07-14T10:00:30.216Z,145760
2017-07-14T10:01:32.240Z,162016
2017-07-14T10:02:34.273Z,170784
2017-07-14T10:03:36.302Z,167328
2017-07-14T10:04:38.336Z,28704
2017-07-14T10:05:40.364Z,29088
2017-07-14T10:06:42.398Z,75040
2017-07-14T10:07:44.425Z,157504
2017-07-14T10:08:46.468Z,114144
2017-07-14T10:09:48.487Z,124864
2017-07-14T10:10:50.546Z,159136
2017-07-14T10:11:52.557Z,148096
2017-07-14T10:12:54.583Z,33120
2017-07-14T10:13:56.610Z,34720
2017-07-14T10:14:58.639Z,116384
2017-07-14T10:16:00.665Z,127104
2017-07-14T10:17:02.712Z,150112
2017-07-14T10:18:04.733Z,157344
2017-07-14T10:19:06.777Z,158912
2017-07-14T10:20:08.813Z,156992
2017-07-14T10:21:10.842Z,158720
2017-07-14T10:22:12.879Z,149056
2017-07-14T10:23:14.916Z,128512
2017-07-14T10:24:16.948Z,156992
2017-07-14T10:25:18.982Z,170336
2017-07-14T10:26:21.010Z,100640
2017-07-14T10:27:23.049Z,161056
2017-07-14T10:28:25.077Z,167968
2017-07-14T10:29:27.123Z,165696
2017-07-14T10:30:29.153Z,31424
2017-07-14T10:31:31.529Z,28224
2017-07-14T10:32:33.558Z,27744
2017-07-14T10:33:35.586Z,30144
2017-07-14T10:34:37.621Z,29920
2017-07-14T10:35:39.664Z,26560
2017-07-14T10:36:41.696Z,25504
2017-07-14T10:37:43.731Z,123200
2017-07-14T10:38:45.767Z,173024
2017-07-14T10:39:47.800Z,121664
2017-07-14T10:40:49.839Z,35648
2017-07-14T10:41:51.865Z,46048
2017-07-14T10:42:53.898Z,37760
2017-07-14T10:43:55.935Z,46592
2017-07-14T10:44:57.974Z,92832
2017-07-14T10:46:00.010Z,183968
2017-07-14T10:47:02.048Z,173600
2017-07-14T10:48:04.084Z,160736
2017-07-14T10:49:06.120Z,25088
2017-07-14T10:50:08.139Z,24096
2017-07-14T10:51:10.186Z,25600
2017-07-14T10:52:12.220Z,34944
2017-07-14T10:53:14.258Z,176736
2017-07-14T10:54:16.297Z,30816
2017-07-14T10:55:18.335Z,28864
2017-07-14T10:56:20.366Z,27584
2017-07-14T10:57:22.406Z,26528
2017-07-14T10:58:24.446Z,23456
2017-07-14T10:59:26.498Z,21568
2017-07-14T11:00:28.528Z,19200
2017-07-14T11:01:30.559Z,23904
2017-07-14T11:02:32.590Z,168064
2017-07-14T11:03:34.632Z,160768
2017-07-14T11:04:36.663Z,155808
2017-07-14T11:05:38.710Z,162464
2017-07-14T11:06:40.744Z,169920
2017-07-14T11:07:42.780Z,174624
2017-07-14T11:08:44.805Z,162528
2017-07-14T11:09:46.848Z,157600
2017-07-14T11:10:48.887Z,154240
2017-07-14T11:11:50.919Z,117792
2017-07-14T11:12:52.952Z,160512
2017-07-14T11:13:54.991Z,152800
2017-07-14T11:14:57.021Z,145600
2017-07-14T11:15:59.063Z,146560
2017-07-14T11:17:01.095Z,147392
2017-07-14T11:18:03.128Z,143360
2017-07-14T11:19:05.162Z,141120
2017-07-14T11:20:07.206Z,140096
2017-07-14T11:21:09.244Z,144704
2017-07-14T11:22:11.283Z,138432
2017-07-14T11:23:13.329Z,138464
2017-07-14T11:24:15.709Z,134240
2017-07-14T11:25:17.745Z,122496
2017-07-14T11:26:19.790Z,136672
2017-07-14T11:27:21.823Z,38944
2017-07-14T11:28:23.862Z,129888
2017-07-14T11:29:25.905Z,118816
2017-07-14T11:30:27.941Z,116448
2017-07-14T11:31:29.979Z,122720
2017-07-14T11:32:32.018Z,125344
2017-07-14T11:33:34.046Z,129696
2017-07-14T11:34:36.095Z,132928
2017-07-14T11:35:38.162Z,124160
2017-07-14T11:36:40.199Z,122784
2017-07-14T11:37:42.240Z,19232
2017-07-14T11:38:44.274Z,24928
2017-07-14T11:39:46.314Z,135264
2017-07-14T11:40:48.359Z,130464
2017-07-14T11:41:50.394Z,59200
2017-07-14T11:42:52.445Z,136096
2017-07-14T11:43:54.816Z,127360
2017-07-14T11:44:56.923Z,121440
2017-07-14T11:45:59.462Z,103392
2017-07-14T11:47:01.499Z,103264
2017-07-14T11:48:03.566Z,109344
2017-07-14T11:49:05.663Z,108640
2017-07-14T11:50:07.703Z,116608
2017-07-14T11:51:09.737Z,125888
2017-07-14T11:52:11.773Z,126528
2017-07-14T11:53:13.820Z,120384
2017-07-14T11:54:15.860Z,118912
2017-07-14T11:55:17.899Z,127168
2017-07-14T11:56:20.282Z,137248
2017-07-14T11:57:22.319Z,144544
2017-07-14T11:58:24.370Z,152224
2017-07-14T11:59:26.409Z,147936
2017-07-14T12:00:28.786Z,142560
2017-07-14T12:01:30.835Z,21824
2017-07-14T12:02:32.870Z,21024
2017-07-14T12:03:34.904Z,22144
2017-07-14T12:04:36.939Z,22208
2017-07-14T12:05:38.977Z,25376
2017-07-14T12:06:41.016Z,23136
2017-07-14T12:07:43.054Z,22656
2017-07-14T12:08:45.092Z,24448
2017-07-14T12:09:47.130Z,25088
2017-07-14T12:10:49.170Z,42720
2017-07-14T12:11:51.210Z,136032
2017-07-14T12:12:53.245Z,143008
2017-07-14T12:13:55.291Z,149344
2017-07-14T12:14:57.329Z,146464
2017-07-14T12:15:59.373Z,120064
2017-07-14T12:17:01.414Z,98400
2017-07-14T12:18:03.452Z,142816
2017-07-14T12:19:05.854Z,148544
2017-07-14T12:20:07.888Z,141088
2017-07-14T12:21:09.935Z,146656
2017-07-14T12:22:11.973Z,149440
2017-07-14T12:23:14.010Z,150144
2017-07-14T12:24:16.048Z,144192
2017-07-14T12:25:18.077Z,142080
2017-07-14T12:26:20.113Z,143008
2017-07-14T12:27:22.154Z,145792
2017-07-14T12:28:24.194Z,151104
2017-07-14T12:29:26.248Z,137984
2017-07-14T12:30:28.291Z,128704
2017-07-14T12:31:30.314Z,134048
2017-07-14T12:32:32.364Z,126528
2017-07-14T12:33:34.406Z,123104
2017-07-14T12:34:36.446Z,119680
2017-07-14T12:35:38.478Z,119520
2017-07-14T12:36:40.523Z,120992
2017-07-14T12:37:42.566Z,123520
2017-07-14T12:38:44.619Z,120480
2017-07-14T12:39:46.650Z,116544
2017-07-14T12:40:48.702Z,110624
2017-07-14T12:41:50.737Z,119040
2017-07-14T12:42:52.783Z,120512
2017-07-14T12:43:55.188Z,111648
2017-07-14T12:44:57.234Z,108224
2017-07-14T12:45:59.281Z,119360
2017-07-14T12:47:01.323Z,133568
2017-07-14T12:48:03.360Z,133120
2017-07-14T12:49:05.407Z,131296
2017-07-14T12:50:07.461Z,124544
2017-07-14T12:51:09.506Z,130592
2017-07-14T12:52:11.548Z,126016
2017-07-14T12:53:13.587Z,113664
2017-07-14T12:54:15.637Z,109792
2017-07-14T12:55:17.672Z,118592
2017-07-14T12:56:20.072Z,124768
2017-07-14T12:57:22.119Z,123744
2017-07-14T12:58:24.166Z,118720
2017-07-14T12:59:26.208Z,115392
2017-07-14T13:00:28.256Z,24480
2017-07-14T13:01:30.299Z,30560
2017-07-14T13:02:32.339Z,86496
2017-07-14T13:03:34.375Z,81632
2017-07-14T13:04:36.427Z,32576
2017-07-14T13:05:38.474Z,112192
2017-07-14T13:06:40.519Z,100096
2017-07-14T13:07:42.562Z,24352
2017-07-14T13:08:44.608Z,103552
2017-07-14T13:09:46.652Z,112384
2017-07-14T13:10:48.699Z,121920
2017-07-14T13:11:50.738Z,122912
2017-07-14T13:12:52.792Z,124960
2017-07-14T13:13:54.844Z,125792
2017-07-14T13:14:56.891Z,125632
2017-07-14T13:15:58.937Z,139424
2017-07-14T13:17:01.324Z,137536
2017-07-14T13:18:03.712Z,122912
2017-07-14T13:19:05.755Z,116000
2017-07-14T13:20:07.804Z,125632
2017-07-14T13:21:09.859Z,130304
2017-07-14T13:22:11.901Z,130016
2017-07-14T13:23:13.942Z,99648
2017-07-14T13:24:15.983Z,141184
2017-07-14T13:25:18.023Z,41696
2017-07-14T13:26:20.075Z,105152
2017-07-14T13:27:22.115Z,22272
2017-07-14T13:28:24.173Z,24608
2017-07-14T13:29:26.213Z,35360
2017-07-14T13:30:28.255Z,136512
2017-07-14T13:31:30.297Z,32800
2017-07-14T13:32:32.347Z,37184
2017-07-14T13:33:34.395Z,27616
2017-07-14T13:34:36.443Z,29120
2017-07-14T13:35:38.481Z,25856
2017-07-14T13:36:40.530Z,25824
2017-07-14T13:37:42.569Z,122752
2017-07-14T13:38:44.619Z,125120
2017-07-14T13:39:47.008Z,117600
2017-07-14T13:40:49.054Z,103744
2017-07-14T13:41:51.104Z,103168